sensor_id;sensor_type;location;lat;lon;timestamp;P1;durP1;ratioP1;P2;durP2;ratioP2
44270;SDS011;29963;44.594;11.368;2023-02-16T00:01:52;56.60;;;31.55;;
44270;SDS011;29963;44.594;11.368;2023-02-16T00:04:25;46.13;;;30.52;;
44270;SDS011;29963;44.594;11.368;2023-02-16T00:06:52;45.08;;;30.67;;
44270;SDS011;29963;44.594;11.368;2023-02-16T00:09:18;52.55;;;30.42;;
44270;SDS011;29963;44.594;11.368;2023-02-16T00:11:48;51.33;;;29.95;;
44270;SDS011;29963;44.594;11.368;2023-02-16T00:14:34;50.75;;;31.73;;
44270;SDS011;29963;44.594;11.368;2023-02-16T00:17:02;47.65;;;29.13;;
44270;SDS011;29963;44.594;11.368;2023-02-16T00:19:29;47.95;;;30.55;;
44270;SDS011;29963;44.594;11.368;2023-02-16T00:21:58;46.65;;;29.25;;
44270;SDS011;29963;44.594;11.368;2023-02-16T00:24:25;46.97;;;26.80;;
44270;SDS011;29963;44.594;11.368;2023-02-16T00:26:52;44.25;;;29.17;;
44270;SDS011;29963;44.594;11.368;2023-02-16T00:29:23;49.58;;;30.38;;
44270;SDS011;29963;44.594;11.368;2023-02-16T00:31:52;45.38;;;28.45;;
44270;SDS011;29963;44.594;11.368;2023-02-16T00:36:50;47.75;;;28.38;;
44270;SDS011;29963;44.594;11.368;2023-02-16T00:39:16;49.55;;;30.50;;
44270;SDS011;29963;44.594;11.368;2023-02-16T00:41:41;49.25;;;29.58;;
44270;SDS011;29963;44.594;11.368;2023-02-16T00:46:43;46.75;;;29.95;;
44270;SDS011;29963;44.594;11.368;2023-02-16T00:49:12;49.10;;;30.05;;
44270;SDS011;29963;44.594;11.368;2023-02-16T00:51:42;47.40;;;29.48;;
44270;SDS011;29963;44.594;11.368;2023-02-16T00:54:07;49.70;;;30.15;;
44270;SDS011;29963;44.594;11.368;2023-02-16T00:56:33;53.00;;;30.45;;
44270;SDS011;29963;44.594;11.368;2023-02-16T00:58:59;50.55;;;28.05;;
44270;SDS011;29963;44.594;11.368;2023-02-16T01:01:28;47.72;;;29.08;;
44270;SDS011;29963;44.594;11.368;2023-02-16T01:03:56;52.72;;;29.70;;
44270;SDS011;29963;44.594;11.368;2023-02-16T01:06:24;51.05;;;30.17;;
44270;SDS011;29963;44.594;11.368;2023-02-16T01:09:13;49.75;;;29.50;;
44270;SDS011;29963;44.594;11.368;2023-02-16T01:12:00;58.30;;;33.40;;
44270;SDS011;29963;44.594;11.368;2023-02-16T01:14:28;46.80;;;28.80;;
44270;SDS011;29963;44.594;11.368;2023-02-16T01:16:56;51.35;;;29.80;;
44270;SDS011;29963;44.594;11.368;2023-02-16T01:19:22;45.67;;;27.08;;
44270;SDS011;29963;44.594;11.368;2023-02-16T01:21:47;47.22;;;26.88;;
44270;SDS011;29963;44.594;11.368;2023-02-16T01:24:13;41.20;;;26.95;;
44270;SDS011;29963;44.594;11.368;2023-02-16T01:26:40;42.05;;;25.83;;
44270;SDS011;29963;44.594;11.368;2023-02-16T01:29:13;49.33;;;27.55;;
44270;SDS011;29963;44.594;11.368;2023-02-16T01:31:40;38.80;;;24.20;;
44270;SDS011;29963;44.594;11.368;2023-02-16T01:34:06;48.35;;;27.98;;
44270;SDS011;29963;44.594;11.368;2023-02-16T01:36:38;48.00;;;26.30;;
44270;SDS011;29963;44.594;11.368;2023-02-16T01:39:10;48.00;;;27.48;;
44270;SDS011;29963;44.594;11.368;2023-02-16T01:44:26;49.88;;;29.95;;
44270;SDS011;29963;44.594;11.368;2023-02-16T01:47:02;40.97;;;26.35;;
44270;SDS011;29963;44.594;11.368;2023-02-16T01:49:47;47.72;;;28.63;;
44270;SDS011;29963;44.594;11.368;2023-02-16T01:57:40;48.00;;;28.15;;
44270;SDS011;29963;44.594;11.368;2023-02-16T02:00:12;44.75;;;25.90;;
44270;SDS011;29963;44.594;11.368;2023-02-16T02:02:45;53.25;;;29.13;;
44270;SDS011;29963;44.594;11.368;2023-02-16T02:05:28;38.80;;;23.45;;
44270;SDS011;29963;44.594;11.368;2023-02-16T02:08:12;43.83;;;26.70;;
44270;SDS011;29963;44.594;11.368;2023-02-16T02:16:17;43.92;;;25.33;;
44270;SDS011;29963;44.594;11.368;2023-02-16T02:18:45;55.20;;;28.02;;
44270;SDS011;29963;44.594;11.368;2023-02-16T02:27:33;43.45;;;25.38;;
44270;SDS011;29963;44.594;11.368;2023-02-16T02:32:58;41.10;;;24.98;;
44270;SDS011;29963;44.594;11.368;2023-02-16T02:38:46;37.90;;;22.92;;
44270;SDS011;29963;44.594;11.368;2023-02-16T02:41:29;44.72;;;25.88;;
44270;SDS011;29963;44.594;11.368;2023-02-16T02:44:21;42.72;;;24.88;;
44270;SDS011;29963;44.594;11.368;2023-02-16T02:46:50;45.63;;;24.92;;
44270;SDS011;29963;44.594;11.368;2023-02-16T02:49:17;36.78;;;23.83;;
44270;SDS011;29963;44.594;11.368;2023-02-16T02:51:43;47.78;;;25.15;;
44270;SDS011;29963;44.594;11.368;2023-02-16T02:54:10;39.70;;;22.77;;
44270;SDS011;29963;44.594;11.368;2023-02-16T02:57:38;48.40;;;25.10;;
44270;SDS011;29963;44.594;11.368;2023-02-16T03:00:33;40.60;;;23.33;;
44270;SDS011;29963;44.594;11.368;2023-02-16T03:05:37;38.58;;;21.92;;
44270;SDS011;29963;44.594;11.368;2023-02-16T03:08:06;38.92;;;23.88;;
44270;SDS011;29963;44.594;11.368;2023-02-16T03:10:42;40.33;;;22.00;;
44270;SDS011;29963;44.594;11.368;2023-02-16T03:13:34;36.40;;;21.77;;
44270;SDS011;29963;44.594;11.368;2023-02-16T03:16:07;33.42;;;19.88;;
44270;SDS011;29963;44.594;11.368;2023-02-16T03:18:36;36.50;;;20.88;;
44270;SDS011;29963;44.594;11.368;2023-02-16T03:21:22;29.60;;;19.13;;
44270;SDS011;29963;44.594;11.368;2023-02-16T03:24:10;35.45;;;22.40;;
44270;SDS011;29963;44.594;11.368;2023-02-16T03:26:59;33.85;;;18.73;;
44270;SDS011;29963;44.594;11.368;2023-02-16T03:29:44;36.90;;;22.67;;
44270;SDS011;29963;44.594;11.368;2023-02-16T03:32:12;28.33;;;18.98;;
44270;SDS011;29963;44.594;11.368;2023-02-16T03:34:38;38.88;;;22.50;;
44270;SDS011;29963;44.594;11.368;2023-02-16T03:37:03;30.50;;;18.90;;
44270;SDS011;29963;44.594;11.368;2023-02-16T03:39:30;34.50;;;21.67;;
44270;SDS011;29963;44.594;11.368;2023-02-16T03:42:17;25.23;;;17.95;;
44270;SDS011;29963;44.594;11.368;2023-02-16T03:44:44;40.25;;;22.83;;
44270;SDS011;29963;44.594;11.368;2023-02-16T03:47:10;34.65;;;20.42;;
44270;SDS011;29963;44.594;11.368;2023-02-16T03:49:35;40.85;;;22.95;;
44270;SDS011;29963;44.594;11.368;2023-02-16T03:52:01;32.58;;;19.83;;
44270;SDS011;29963;44.594;11.368;2023-02-16T03:54:27;41.05;;;22.63;;
44270;SDS011;29963;44.594;11.368;2023-02-16T03:56:52;27.92;;;18.73;;
44270;SDS011;29963;44.594;11.368;2023-02-16T03:59:18;35.33;;;20.55;;
44270;SDS011;29963;44.594;11.368;2023-02-16T04:01:44;28.25;;;18.67;;
44270;SDS011;29963;44.594;11.368;2023-02-16T04:04:10;37.30;;;21.88;;
44270;SDS011;29963;44.594;11.368;2023-02-16T04:06:36;32.95;;;19.83;;
44270;SDS011;29963;44.594;11.368;2023-02-16T04:09:01;42.88;;;24.27;;
44270;SDS011;29963;44.594;11.368;2023-02-16T04:11:27;31.85;;;20.00;;
44270;SDS011;29963;44.594;11.368;2023-02-16T04:14:11;37.42;;;22.80;;
44270;SDS011;29963;44.594;11.368;2023-02-16T04:16:37;30.08;;;20.17;;
44270;SDS011;29963;44.594;11.368;2023-02-16T04:19:03;40.38;;;22.63;;
44270;SDS011;29963;44.594;11.368;2023-02-16T04:21:30;36.55;;;21.33;;
44270;SDS011;29963;44.594;11.368;2023-02-16T04:23:55;44.40;;;23.75;;
44270;SDS011;29963;44.594;11.368;2023-02-16T04:26:21;34.13;;;21.52;;
44270;SDS011;29963;44.594;11.368;2023-02-16T04:28:47;38.85;;;22.65;;
44270;SDS011;29963;44.594;11.368;2023-02-16T04:31:12;41.53;;;22.83;;
44270;SDS011;29963;44.594;11.368;2023-02-16T04:33:38;36.80;;;21.52;;
44270;SDS011;29963;44.594;11.368;2023-02-16T04:36:04;38.25;;;21.85;;
44270;SDS011;29963;44.594;11.368;2023-02-16T04:38:30;32.97;;;20.70;;
44270;SDS011;29963;44.594;11.368;2023-02-16T04:40:55;43.53;;;22.35;;
44270;SDS011;29963;44.594;11.368;2023-02-16T04:43:21;33.55;;;19.63;;
44270;SDS011;29963;44.594;11.368;2023-02-16T04:45:47;35.75;;;22.40;;
44270;SDS011;29963;44.594;11.368;2023-02-16T04:48:12;39.22;;;19.83;;
44270;SDS011;29963;44.594;11.368;2023-02-16T04:50:38;34.63;;;20.88;;
44270;SDS011;29963;44.594;11.368;2023-02-16T04:53:03;32.15;;;19.00;;
44270;SDS011;29963;44.594;11.368;2023-02-16T04:55:29;36.38;;;21.13;;
44270;SDS011;29963;44.594;11.368;2023-02-16T04:57:55;28.40;;;18.63;;
44270;SDS011;29963;44.594;11.368;2023-02-16T05:00:21;44.60;;;22.35;;
44270;SDS011;29963;44.594;11.368;2023-02-16T05:02:46;36.60;;;21.00;;
44270;SDS011;29963;44.594;11.368;2023-02-16T05:05:12;34.28;;;19.98;;
44270;SDS011;29963;44.594;11.368;2023-02-16T05:07:38;32.90;;;19.25;;
44270;SDS011;29963;44.594;11.368;2023-02-16T05:10:04;38.70;;;20.77;;
44270;SDS011;29963;44.594;11.368;2023-02-16T05:12:30;25.63;;;15.90;;
44270;SDS011;29963;44.594;11.368;2023-02-16T05:15:14;36.15;;;19.05;;
44270;SDS011;29963;44.594;11.368;2023-02-16T05:17:40;31.20;;;17.55;;
44270;SDS011;29963;44.594;11.368;2023-02-16T05:20:09;36.42;;;19.65;;
44270;SDS011;29963;44.594;11.368;2023-02-16T05:22:35;32.17;;;19.13;;
44270;SDS011;29963;44.594;11.368;2023-02-16T05:25:03;30.25;;;17.48;;
44270;SDS011;29963;44.594;11.368;2023-02-16T05:27:29;36.38;;;20.45;;
44270;SDS011;29963;44.594;11.368;2023-02-16T05:29:55;31.45;;;18.95;;
44270;SDS011;29963;44.594;11.368;2023-02-16T05:32:22;37.55;;;19.90;;
44270;SDS011;29963;44.594;11.368;2023-02-16T05:34:48;37.97;;;20.25;;
44270;SDS011;29963;44.594;11.368;2023-02-16T05:37:14;43.88;;;21.58;;
44270;SDS011;29963;44.594;11.368;2023-02-16T05:39:41;29.50;;;18.08;;
44270;SDS011;29963;44.594;11.368;2023-02-16T05:42:07;45.53;;;23.63;;
44270;SDS011;29963;44.594;11.368;2023-02-16T05:44:33;43.13;;;23.27;;
44270;SDS011;29963;44.594;11.368;2023-02-16T05:46:58;44.00;;;22.25;;
44270;SDS011;29963;44.594;11.368;2023-02-16T05:49:24;44.75;;;24.15;;
44270;SDS011;29963;44.594;11.368;2023-02-16T05:51:50;43.50;;;22.77;;
44270;SDS011;29963;44.594;11.368;2023-02-16T05:54:15;44.45;;;25.02;;
44270;SDS011;29963;44.594;11.368;2023-02-16T05:56:42;38.50;;;22.15;;
44270;SDS011;29963;44.594;11.368;2023-02-16T05:59:12;48.75;;;22.77;;
44270;SDS011;29963;44.594;11.368;2023-02-16T06:01:39;51.85;;;23.27;;
44270;SDS011;29963;44.594;11.368;2023-02-16T06:04:08;61.13;;;26.27;;
44270;SDS011;29963;44.594;11.368;2023-02-16T06:06:36;46.53;;;23.40;;
44270;SDS011;29963;44.594;11.368;2023-02-16T06:09:05;54.00;;;27.55;;
44270;SDS011;29963;44.594;11.368;2023-02-16T06:11:32;51.45;;;26.40;;
44270;SDS011;29963;44.594;11.368;2023-02-16T06:14:05;59.25;;;28.85;;
44270;SDS011;29963;44.594;11.368;2023-02-16T06:16:33;46.67;;;25.45;;
44270;SDS011;29963;44.594;11.368;2023-02-16T06:18:59;58.78;;;28.52;;
44270;SDS011;29963;44.594;11.368;2023-02-16T06:21:25;49.38;;;25.35;;
44270;SDS011;29963;44.594;11.368;2023-02-16T06:23:52;62.22;;;28.45;;
44270;SDS011;29963;44.594;11.368;2023-02-16T06:26:18;44.28;;;24.45;;
44270;SDS011;29963;44.594;11.368;2023-02-16T06:28:43;57.95;;;26.85;;
44270;SDS011;29963;44.594;11.368;2023-02-16T06:31:09;47.22;;;23.38;;
44270;SDS011;29963;44.594;11.368;2023-02-16T06:33:35;62.60;;;28.05;;
44270;SDS011;29963;44.594;11.368;2023-02-16T06:36:01;54.50;;;26.85;;
44270;SDS011;29963;44.594;11.368;2023-02-16T06:38:26;37.88;;;23.48;;
44270;SDS011;29963;44.594;11.368;2023-02-16T06:40:55;50.20;;;25.85;;
44270;SDS011;29963;44.594;11.368;2023-02-16T06:43:21;43.78;;;24.23;;
44270;SDS011;29963;44.594;11.368;2023-02-16T06:45:46;47.60;;;25.38;;
44270;SDS011;29963;44.594;11.368;2023-02-16T06:48:12;45.60;;;23.98;;
44270;SDS011;29963;44.594;11.368;2023-02-16T06:50:38;45.17;;;25.08;;
44270;SDS011;29963;44.594;11.368;2023-02-16T06:53:04;35.78;;;21.63;;
44270;SDS011;29963;44.594;11.368;2023-02-16T06:55:30;38.40;;;21.23;;
44270;SDS011;29963;44.594;11.368;2023-02-16T06:58:01;44.03;;;23.90;;
44270;SDS011;29963;44.594;11.368;2023-02-16T07:00:29;37.40;;;22.98;;
44270;SDS011;29963;44.594;11.368;2023-02-16T07:02:55;51.70;;;25.45;;
44270;SDS011;29963;44.594;11.368;2023-02-16T07:05:21;43.22;;;22.23;;
44270;SDS011;29963;44.594;11.368;2023-02-16T07:07:46;47.60;;;24.30;;
44270;SDS011;29963;44.594;11.368;2023-02-16T07:10:12;47.75;;;27.35;;
44270;SDS011;29963;44.594;11.368;2023-02-16T07:12:38;42.15;;;25.65;;
44270;SDS011;29963;44.594;11.368;2023-02-16T07:15:04;40.13;;;23.02;;
44270;SDS011;29963;44.594;11.368;2023-02-16T07:17:30;48.15;;;24.65;;
44270;SDS011;29963;44.594;11.368;2023-02-16T07:19:56;41.63;;;23.30;;
44270;SDS011;29963;44.594;11.368;2023-02-16T07:22:21;57.53;;;26.02;;
44270;SDS011;29963;44.594;11.368;2023-02-16T07:24:47;42.70;;;24.15;;
44270;SDS011;29963;44.594;11.368;2023-02-16T07:27:13;53.70;;;26.88;;
44270;SDS011;29963;44.594;11.368;2023-02-16T07:29:38;48.17;;;25.52;;
44270;SDS011;29963;44.594;11.368;2023-02-16T07:32:04;55.72;;;29.08;;
44270;SDS011;29963;44.594;11.368;2023-02-16T07:34:29;50.67;;;25.60;;
44270;SDS011;29963;44.594;11.368;2023-02-16T07:36:55;59.72;;;28.38;;
44270;SDS011;29963;44.594;11.368;2023-02-16T07:39:21;55.60;;;31.08;;
44270;SDS011;29963;44.594;11.368;2023-02-16T07:41:47;75.50;;;52.13;;
44270;SDS011;29963;44.594;11.368;2023-02-16T07:44:12;78.10;;;60.67;;
44270;SDS011;29963;44.594;11.368;2023-02-16T07:46:38;63.55;;;37.72;;
44270;SDS011;29963;44.594;11.368;2023-02-16T07:49:03;46.63;;;25.63;;
44270;SDS011;29963;44.594;11.368;2023-02-16T07:51:29;50.30;;;28.45;;
44270;SDS011;29963;44.594;11.368;2023-02-16T07:53:56;52.08;;;26.80;;
44270;SDS011;29963;44.594;11.368;2023-02-16T07:56:27;52.80;;;26.05;;
44270;SDS011;29963;44.594;11.368;2023-02-16T07:58:55;44.85;;;26.15;;
44270;SDS011;29963;44.594;11.368;2023-02-16T08:01:22;56.97;;;28.20;;
44270;SDS011;29963;44.594;11.368;2023-02-16T08:03:48;45.60;;;25.55;;
44270;SDS011;29963;44.594;11.368;2023-02-16T08:06:14;51.70;;;28.65;;
44270;SDS011;29963;44.594;11.368;2023-02-16T08:08:40;45.15;;;24.58;;
44270;SDS011;29963;44.594;11.368;2023-02-16T08:11:20;53.83;;;28.42;;
44270;SDS011;29963;44.594;11.368;2023-02-16T08:13:47;48.10;;;26.10;;
44270;SDS011;29963;44.594;11.368;2023-02-16T08:16:14;53.33;;;29.83;;
44270;SDS011;29963;44.594;11.368;2023-02-16T08:18:42;44.47;;;25.33;;
44270;SDS011;29963;44.594;11.368;2023-02-16T08:21:10;54.03;;;29.63;;
44270;SDS011;29963;44.594;11.368;2023-02-16T08:23:44;52.63;;;27.33;;
44270;SDS011;29963;44.594;11.368;2023-02-16T08:26:17;59.53;;;31.33;;
44270;SDS011;29963;44.594;11.368;2023-02-16T08:28:44;44.53;;;24.73;;
44270;SDS011;29963;44.594;11.368;2023-02-16T08:31:14;60.63;;;33.90;;
44270;SDS011;29963;44.594;11.368;2023-02-16T08:33:41;57.15;;;32.63;;
44270;SDS011;29963;44.594;11.368;2023-02-16T08:36:15;68.88;;;36.92;;
44270;SDS011;29963;44.594;11.368;2023-02-16T08:38:42;66.13;;;39.03;;
44270;SDS011;29963;44.594;11.368;2023-02-16T08:41:07;84.45;;;47.60;;
44270;SDS011;29963;44.594;11.368;2023-02-16T08:43:33;63.33;;;40.35;;
44270;SDS011;29963;44.594;11.368;2023-02-16T08:45:59;78.38;;;45.50;;
44270;SDS011;29963;44.594;11.368;2023-02-16T08:48:24;78.47;;;45.88;;
44270;SDS011;29963;44.594;11.368;2023-02-16T08:50:52;85.90;;;48.92;;
44270;SDS011;29963;44.594;11.368;2023-02-16T08:53:19;70.75;;;42.55;;
44270;SDS011;29963;44.594;11.368;2023-02-16T08:55:50;77.95;;;47.10;;
44270;SDS011;29963;44.594;11.368;2023-02-16T08:58:18;65.97;;;41.05;;
44270;SDS011;29963;44.594;11.368;2023-02-16T09:00:43;82.43;;;45.55;;
44270;SDS011;29963;44.594;11.368;2023-02-16T09:03:09;68.95;;;40.50;;
44270;SDS011;29963;44.594;11.368;2023-02-16T09:05:35;71.40;;;43.80;;
44270;SDS011;29963;44.594;11.368;2023-02-16T09:08:00;67.95;;;42.05;;
44270;SDS011;29963;44.594;11.368;2023-02-16T09:10:26;73.68;;;45.17;;
44270;SDS011;29963;44.594;11.368;2023-02-16T09:12:52;73.10;;;46.83;;
44270;SDS011;29963;44.594;11.368;2023-02-16T09:15:18;77.50;;;48.28;;
44270;SDS011;29963;44.594;11.368;2023-02-16T09:17:44;79.70;;;49.92;;
44270;SDS011;29963;44.594;11.368;2023-02-16T09:20:10;74.65;;;50.65;;
44270;SDS011;29963;44.594;11.368;2023-02-16T09:22:36;88.55;;;50.83;;
44270;SDS011;29963;44.594;11.368;2023-02-16T09:25:03;78.72;;;50.28;;
44270;SDS011;29963;44.594;11.368;2023-02-16T09:27:31;79.75;;;50.40;;
44270;SDS011;29963;44.594;11.368;2023-02-16T09:29:58;86.38;;;53.70;;
44270;SDS011;29963;44.594;11.368;2023-02-16T09:32:26;80.28;;;51.67;;
44270;SDS011;29963;44.594;11.368;2023-02-16T09:34:56;83.13;;;53.45;;
44270;SDS011;29963;44.594;11.368;2023-02-16T09:37:22;85.25;;;55.00;;
44270;SDS011;29963;44.594;11.368;2023-02-16T09:39:48;88.18;;;55.58;;
44270;SDS011;29963;44.594;11.368;2023-02-16T09:45:00;84.00;;;52.05;;
44270;SDS011;29963;44.594;11.368;2023-02-16T09:47:38;82.05;;;50.88;;
44270;SDS011;29963;44.594;11.368;2023-02-16T09:50:15;77.53;;;50.95;;
44270;SDS011;29963;44.594;11.368;2023-02-16T09:52:49;68.10;;;46.38;;
44270;SDS011;29963;44.594;11.368;2023-02-16T09:55:17;67.80;;;45.25;;
44270;SDS011;29963;44.594;11.368;2023-02-16T09:57:50;66.15;;;46.03;;
44270;SDS011;29963;44.594;11.368;2023-02-16T10:08:33;76.18;;;48.95;;
44270;SDS011;29963;44.594;11.368;2023-02-16T10:11:08;76.82;;;50.42;;
44270;SDS011;29963;44.594;11.368;2023-02-16T10:14:12;72.93;;;46.85;;
44270;SDS011;29963;44.594;11.368;2023-02-16T10:17:12;80.32;;;48.83;;
44270;SDS011;29963;44.594;11.368;2023-02-16T10:19:47;74.45;;;47.05;;
44270;SDS011;29963;44.594;11.368;2023-02-16T10:22:41;76.82;;;46.20;;
44270;SDS011;29963;44.594;11.368;2023-02-16T10:25:28;80.13;;;47.85;;
44270;SDS011;29963;44.594;11.368;2023-02-16T10:28:18;81.47;;;48.90;;
44270;SDS011;29963;44.594;11.368;2023-02-16T10:30:50;81.10;;;48.78;;
44270;SDS011;29963;44.594;11.368;2023-02-16T10:36:15;75.97;;;47.95;;
44270;SDS011;29963;44.594;11.368;2023-02-16T10:38:57;80.40;;;50.22;;
44270;SDS011;29963;44.594;11.368;2023-02-16T10:41:46;79.90;;;47.40;;
44270;SDS011;29963;44.594;11.368;2023-02-16T10:44:27;77.57;;;48.00;;
44270;SDS011;29963;44.594;11.368;2023-02-16T10:47:00;90.20;;;54.15;;
44270;SDS011;29963;44.594;11.368;2023-02-16T10:49:29;72.40;;;46.45;;
44270;SDS011;29963;44.594;11.368;2023-02-16T10:51:56;79.40;;;46.95;;
44270;SDS011;29963;44.594;11.368;2023-02-16T10:54:26;88.10;;;51.13;;
44270;SDS011;29963;44.594;11.368;2023-02-16T10:56:56;83.18;;;50.13;;
44270;SDS011;29963;44.594;11.368;2023-02-16T10:59:29;93.45;;;56.58;;
44270;SDS011;29963;44.594;11.368;2023-02-16T11:01:56;90.90;;;54.67;;
44270;SDS011;29963;44.594;11.368;2023-02-16T11:04:37;89.20;;;54.65;;
44270;SDS011;29963;44.594;11.368;2023-02-16T11:07:11;95.38;;;57.45;;
44270;SDS011;29963;44.594;11.368;2023-02-16T11:09:40;92.93;;;54.25;;
44270;SDS011;29963;44.594;11.368;2023-02-16T11:12:14;91.65;;;57.42;;
44270;SDS011;29963;44.594;11.368;2023-02-16T11:15:05;97.88;;;59.13;;
44270;SDS011;29963;44.594;11.368;2023-02-16T11:17:57;96.88;;;56.78;;
44270;SDS011;29963;44.594;11.368;2023-02-16T11:23:22;99.45;;;60.67;;
44270;SDS011;29963;44.594;11.368;2023-02-16T11:26:05;107.43;;;59.17;;
44270;SDS011;29963;44.594;11.368;2023-02-16T11:33:39;94.85;;;60.55;;
44270;SDS011;29963;44.594;11.368;2023-02-16T11:36:19;109.93;;;64.03;;
44270;SDS011;29963;44.594;11.368;2023-02-16T11:38:56;97.30;;;61.33;;
44270;SDS011;29963;44.594;11.368;2023-02-16T11:41:37;102.00;;;60.38;;
44270;SDS011;29963;44.594;11.368;2023-02-16T11:44:23;100.78;;;59.88;;
44270;SDS011;29963;44.594;11.368;2023-02-16T11:46:55;110.53;;;62.78;;
44270;SDS011;29963;44.594;11.368;2023-02-16T11:49:38;108.68;;;62.58;;
44270;SDS011;29963;44.594;11.368;2023-02-16T11:54:54;116.25;;;68.78;;
44270;SDS011;29963;44.594;11.368;2023-02-16T11:57:25;115.78;;;67.18;;
44270;SDS011;29963;44.594;11.368;2023-02-16T11:59:57;106.72;;;66.32;;
44270;SDS011;29963;44.594;11.368;2023-02-16T12:02:28;115.22;;;67.80;;
44270;SDS011;29963;44.594;11.368;2023-02-16T12:10:54;112.97;;;66.15;;
44270;SDS011;29963;44.594;11.368;2023-02-16T12:18:43;119.00;;;69.55;;
44270;SDS011;29963;44.594;11.368;2023-02-16T12:24:16;119.95;;;72.03;;
44270;SDS011;29963;44.594;11.368;2023-02-16T12:26:51;115.70;;;68.88;;
44270;SDS011;29963;44.594;11.368;2023-02-16T12:29:33;111.47;;;66.30;;
44270;SDS011;29963;44.594;11.368;2023-02-16T12:32:24;113.68;;;69.60;;
44270;SDS011;29963;44.594;11.368;2023-02-16T12:37:44;104.90;;;63.25;;
44270;SDS011;29963;44.594;11.368;2023-02-16T12:45:45;102.72;;;61.13;;
44270;SDS011;29963;44.594;11.368;2023-02-16T12:50:53;110.85;;;63.88;;
44270;SDS011;29963;44.594;11.368;2023-02-16T12:53:23;104.25;;;64.60;;
44270;SDS011;29963;44.594;11.368;2023-02-16T12:55:55;101.82;;;62.47;;
44270;SDS011;29963;44.594;11.368;2023-02-16T12:58:37;112.22;;;67.10;;
44270;SDS011;29963;44.594;11.368;2023-02-16T13:01:09;105.00;;;65.65;;
44270;SDS011;29963;44.594;11.368;2023-02-16T13:04:00;98.43;;;60.08;;
44270;SDS011;29963;44.594;11.368;2023-02-16T13:12:09;107.13;;;66.78;;
44270;SDS011;29963;44.594;11.368;2023-02-16T13:15:08;107.55;;;63.92;;
44270;SDS011;29963;44.594;11.368;2023-02-16T13:20:26;100.97;;;60.88;;
44270;SDS011;29963;44.594;11.368;2023-02-16T13:28:32;113.68;;;65.97;;
44270;SDS011;29963;44.594;11.368;2023-02-16T13:31:20;96.03;;;60.70;;
44270;SDS011;29963;44.594;11.368;2023-02-16T13:39:22;97.93;;;64.40;;
44270;SDS011;29963;44.594;11.368;2023-02-16T13:44:42;95.28;;;63.97;;
44270;SDS011;29963;44.594;11.368;2023-02-16T13:47:16;89.95;;;58.50;;
44270;SDS011;29963;44.594;11.368;2023-02-16T13:49:45;97.15;;;61.70;;
44270;SDS011;29963;44.594;11.368;2023-02-16T13:55:27;92.95;;;58.22;;
44270;SDS011;29963;44.594;11.368;2023-02-16T13:57:58;99.93;;;60.47;;
44270;SDS011;29963;44.594;11.368;2023-02-16T14:05:45;92.32;;;60.60;;
44270;SDS011;29963;44.594;11.368;2023-02-16T14:11:06;88.85;;;57.70;;
44270;SDS011;29963;44.594;11.368;2023-02-16T14:16:23;104.38;;;64.60;;
44270;SDS011;29963;44.594;11.368;2023-02-16T14:19:37;107.05;;;68.57;;
44270;SDS011;29963;44.594;11.368;2023-02-16T14:21:49;98.43;;;62.15;;
44270;SDS011;29963;44.594;11.368;2023-02-16T14:27:08;92.55;;;62.78;;
44270;SDS011;29963;44.594;11.368;2023-02-16T14:29:41;95.35;;;62.92;;
44270;SDS011;29963;44.594;11.368;2023-02-16T14:32:31;98.38;;;63.25;;
44270;SDS011;29963;44.594;11.368;2023-02-16T14:35:07;102.72;;;62.40;;
44270;SDS011;29963;44.594;11.368;2023-02-16T14:40:20;92.88;;;62.08;;
44270;SDS011;29963;44.594;11.368;2023-02-16T14:43:25;91.25;;;58.47;;
44270;SDS011;29963;44.594;11.368;2023-02-16T14:45:55;90.13;;;61.00;;
44270;SDS011;29963;44.594;11.368;2023-02-16T14:56:24;109.60;;;68.78;;
44270;SDS011;29963;44.594;11.368;2023-02-16T14:59:16;89.90;;;62.33;;
44270;SDS011;29963;44.594;11.368;2023-02-16T15:01:53;94.90;;;63.25;;
44270;SDS011;29963;44.594;11.368;2023-02-16T15:04:29;92.60;;;66.13;;
44270;SDS011;29963;44.594;11.368;2023-02-16T15:07:01;96.07;;;63.97;;
44270;SDS011;29963;44.594;11.368;2023-02-16T15:09:30;93.78;;;63.85;;
44270;SDS011;29963;44.594;11.368;2023-02-16T15:12:00;88.75;;;63.60;;
44270;SDS011;29963;44.594;11.368;2023-02-16T15:14:54;98.15;;;64.47;;
44270;SDS011;29963;44.594;11.368;2023-02-16T15:17:44;90.82;;;64.32;;
44270;SDS011;29963;44.594;11.368;2023-02-16T15:20:16;92.05;;;63.90;;
44270;SDS011;29963;44.594;11.368;2023-02-16T15:22:52;98.60;;;67.97;;
44270;SDS011;29963;44.594;11.368;2023-02-16T15:25:26;93.63;;;65.40;;
44270;SDS011;29963;44.594;11.368;2023-02-16T15:28:00;91.78;;;61.92;;
44270;SDS011;29963;44.594;11.368;2023-02-16T15:30:35;103.18;;;67.75;;
44270;SDS011;29963;44.594;11.368;2023-02-16T15:33:05;97.03;;;65.90;;
44270;SDS011;29963;44.594;11.368;2023-02-16T15:35:41;96.35;;;63.40;;
44270;SDS011;29963;44.594;11.368;2023-02-16T15:40:37;96.65;;;62.30;;
44270;SDS011;29963;44.594;11.368;2023-02-16T15:46:05;99.20;;;65.22;;
44270;SDS011;29963;44.594;11.368;2023-02-16T15:48:37;98.85;;;64.55;;
44270;SDS011;29963;44.594;11.368;2023-02-16T15:53:58;94.85;;;62.67;;
44270;SDS011;29963;44.594;11.368;2023-02-16T15:57:23;104.53;;;65.63;;
44270;SDS011;29963;44.594;11.368;2023-02-16T15:59:27;95.00;;;64.20;;
44270;SDS011;29963;44.594;11.368;2023-02-16T16:04:37;93.40;;;64.40;;
44270;SDS011;29963;44.594;11.368;2023-02-16T16:07:06;92.13;;;63.00;;
44270;SDS011;29963;44.594;11.368;2023-02-16T16:09:43;88.97;;;61.72;;
44270;SDS011;29963;44.594;11.368;2023-02-16T16:12:12;89.60;;;59.30;;
44270;SDS011;29963;44.594;11.368;2023-02-16T16:14:59;85.65;;;59.58;;
44270;SDS011;29963;44.594;11.368;2023-02-16T16:17:30;88.85;;;61.25;;
44270;SDS011;29963;44.594;11.368;2023-02-16T16:19:58;89.07;;;60.10;;
44270;SDS011;29963;44.594;11.368;2023-02-16T16:22:54;88.93;;;61.25;;
44270;SDS011;29963;44.594;11.368;2023-02-16T16:27:54;90.65;;;59.85;;
44270;SDS011;29963;44.594;11.368;2023-02-16T16:33:25;85.20;;;56.60;;
44270;SDS011;29963;44.594;11.368;2023-02-16T16:35:45;90.30;;;57.33;;
44270;SDS011;29963;44.594;11.368;2023-02-16T16:38:25;90.47;;;60.83;;
44270;SDS011;29963;44.594;11.368;2023-02-16T16:40:58;84.72;;;56.55;;
44270;SDS011;29963;44.594;11.368;2023-02-16T16:43:33;94.07;;;60.85;;
44270;SDS011;29963;44.594;11.368;2023-02-16T16:46:17;80.63;;;53.13;;
44270;SDS011;29963;44.594;11.368;2023-02-16T16:48:47;86.60;;;57.75;;
44270;SDS011;29963;44.594;11.368;2023-02-16T16:56:21;83.10;;;55.63;;
44270;SDS011;29963;44.594;11.368;2023-02-16T16:58:48;92.80;;;60.58;;
44270;SDS011;29963;44.594;11.368;2023-02-16T17:01:15;96.03;;;61.03;;
44270;SDS011;29963;44.594;11.368;2023-02-16T17:03:41;98.18;;;63.28;;
44270;SDS011;29963;44.594;11.368;2023-02-16T17:06:07;88.97;;;58.83;;
44270;SDS011;29963;44.594;11.368;2023-02-16T17:08:33;96.35;;;61.03;;